Time;durP1;ratioP1;P1;durP2;ratioP2;P2;SDS_P1;SDS_P2;PMS_P1;PMS_P2;Temp;Humidity;BMP_temperature;BMP_pressure;BME280_temperature;BME280_humidity;BME280_pressure;Samples;Min_cycle;Max_cycle;Signal;HPM_P1;HPM_P2
2024/03/04 00:01:42;;;;;;;;;;;;;;;10.32;53.88;99589.78;4985612;27;98104;-70
2024/03/04 00:04:07;;;;;;;;;;;;;;;10.32;53.72;99589.78;4982195;27;98372;-70
2024/03/04 00:06:34;;;;;;;;;;;;;;;10.32;53.45;99589.78;4971205;27;128405;-70
2024/03/04 00:09:00;;;;;;;;;;;;;;;10.31;53.87;99593.59;4982739;27;98387;-70
2024/03/04 00:11:26;;;;;;;;;;;;;;;10.30;53.64;99589.28;4996714;27;97993;-70
2024/03/04 00:13:52;;;;;;;;;;;;;;;10.30;53.48;99594.69;4970742;27;97956;-70
2024/03/04 00:16:18;;;;;;;;;;;;;;;10.29;53.18;99590.34;4979586;27;129665;-70
2024/03/04 00:18:44;;;;;;;;;;;;;;;10.28;53.50;99592.25;4979532;27;103897;-70
2024/03/04 00:21:10;;;;;;;;;;;;;;;10.27;53.79;99596.03;4973608;27;98531;-70
2024/03/04 00:23:36;;;;;;;;;;;;;;;10.27;53.82;99601.44;4964506;27;130130;-70
2024/03/04 00:26:05;;;;;;;;;;;;;;;10.27;53.83;99600.63;4987447;27;113504;-70
2024/03/04 00:28:31;;;;;;;;;;;;;;;10.25;53.67;99597.41;4988941;27;98561;-70
2024/03/04 00:30:57;;;;;;;;;;;;;;;10.25;53.27;99608.97;4985706;27;117795;-70
2024/03/04 00:33:23;;;;;;;;;;;;;;;10.25;53.49;99600.09;4980941;27;98491;-70
2024/03/04 00:35:49;;;;;;;;;;;;;;;10.23;53.58;99605.75;4984244;27;116872;-70
2024/03/04 00:38:15;;;;;;;;;;;;;;;10.23;53.94;99611.16;4980139;27;100874;-70
2024/03/04 00:40:41;;;;;;;;;;;;;;;10.23;53.82;99604.97;4986074;27;98117;-70
2024/03/04 00:43:07;;;;;;;;;;;;;;;10.21;53.75;99605.22;4970538;27;99245;-70
2024/03/04 00:45:34;;;;;;;;;;;;;;;10.20;53.96;99603.63;4985441;27;98060;-70
2024/03/04 00:48:00;;;;;;;;;;;;;;;10.21;53.52;99604.44;4981611;27;105636;-70
2024/03/04 00:50:26;;;;;;;;;;;;;;;10.20;53.58;99614.41;4981242;27;98101;-70
2024/03/04 00:52:54;;;;;;;;;;;;;;;10.19;53.45;99604.72;5003989;27;98756;-70
2024/03/04 00:55:20;;;;;;;;;;;;;;;10.19;53.20;99626.28;4955013;27;99271;-70
2024/03/04 00:57:46;;;;;;;;;;;;;;;10.18;53.18;99626.53;4983542;27;116296;-70
2024/03/04 01:00:14;;;;;;;;;;;;;;;10.18;53.42;99626.53;4998102;27;114273;-70
2024/03/04 01:02:41;;;;;;;;;;;;;;;10.16;53.10;99621.44;4980674;27;98742;-70
2024/03/04 01:05:07;;;;;;;;;;;;;;;10.16;53.89;99631.41;4982162;27;99424;-70
2024/03/04 01:07:33;;;;;;;;;;;;;;;10.15;53.87;99627.13;4977508;27;109547;-70
2024/03/04 01:09:59;;;;;;;;;;;;;;;10.14;53.24;99629.03;4983959;27;116982;-70
2024/03/04 01:12:25;;;;;;;;;;;;;;;10.14;53.57;99628.19;4983447;27;100059;-70
2024/03/04 01:14:52;;;;;;;;;;;;;;;10.13;53.27;99627.41;4969108;27;98353;-70
2024/03/04 01:17:18;;;;;;;;;;;;;;;10.13;53.18;99623.91;4999616;27;98396;-70
2024/03/04 01:19:47;;;;;;;;;;;;;;;10.12;53.58;99633.88;4971377;27;98150;-70
2024/03/04 01:22:16;;;;;;;;;;;;;;;10.11;53.88;99631.47;4958724;27;99553;-70
2024/03/04 01:24:43;;;;;;;;;;;;;;;10.11;53.59;99632.28;4985369;27;98465;-70
2024/03/04 01:27:10;;;;;;;;;;;;;;;10.11;53.88;99628.78;4979970;27;98329;-70
2024/03/04 01:29:37;;;;;;;;;;;;;;;10.09;53.52;99626.34;4959655;27;98120;-70
2024/03/04 01:32:03;;;;;;;;;;;;;;;10.10;53.48;99636.06;4966012;27;98284;-70
2024/03/04 01:34:29;;;;;;;;;;;;;;;10.08;53.22;99640.91;4977226;27;98459;-70
2024/03/04 01:36:55;;;;;;;;;;;;;;;10.07;53.91;99640.13;4985187;27;98131;-70
2024/03/04 01:39:21;;;;;;;;;;;;;;;10.08;53.22;99643.59;5015641;27;99329;-70
2024/03/04 01:41:48;;;;;;;;;;;;;;;10.06;53.56;99638.53;4971582;27;111142;-70
2024/03/04 01:44:14;;;;;;;;;;;;;;;10.06;53.22;99643.06;5005177;27;112168;-70
2024/03/04 01:46:41;;;;;;;;;;;;;;;10.05;53.33;99647.66;4982434;27;120473;-70
2024/03/04 01:49:07;;;;;;;;;;;;;;;10.05;53.04;99649.56;4964910;27;97945;-70
2024/03/04 01:51:33;;;;;;;;;;;;;;;10.03;53.51;99644.47;4999173;27;99236;-70
2024/03/04 01:54:00;;;;;;;;;;;;;;;10.02;53.18;99647.41;4962655;27;106238;-70
2024/03/04 01:56:26;;;;;;;;;;;;;;;10.01;53.50;99649.31;4987702;27;118765;-70
2024/03/04 01:58:52;;;;;;;;;;;;;;;10.00;53.84;99653.09;4995991;27;108174;-70
2024/03/04 02:01:18;;;;;;;;;;;;;;;10.01;53.73;99656.59;4962147;27;103153;-70
2024/03/04 02:03:44;;;;;;;;;;;;;;;10.00;53.41;99653.09;4984261;27;102370;-70
2024/03/04 02:06:09;;;;;;;;;;;;;;;9.99;53.53;99651.50;4975229;27;126778;-70
2024/03/04 02:08:35;;;;;;;;;;;;;;;9.99;53.47;99645.31;4965503;27;98762;-70
2024/03/04 02:11:03;;;;;;;;;;;;;;;9.98;53.63;99652.59;4960680;27;102922;-70
2024/03/04 02:13:33;;;;;;;;;;;;;;;9.99;53.60;99650.69;4964865;27;98011;-70
2024/03/04 02:16:00;;;;;;;;;;;;;;;9.97;53.55;99650.97;4973734;27;97972;-70
2024/03/04 02:18:26;;;;;;;;;;;;;;;9.97;53.21;99653.66;4976976;27;98407;-70
2024/03/04 02:21:00;;;;;;;;;;;;;;;9.96;53.41;99652.06;4981283;27;128709;-72
2024/03/04 02:23:26;;;;;;;;;;;;;;;9.95;53.44;99645.06;4984771;27;99045;-70
2024/03/04 02:25:53;;;;;;;;;;;;;;;9.96;53.58;99648.56;4964030;27;120368;-70
2024/03/04 02:28:19;;;;;;;;;;;;;;;9.95;53.52;99650.47;4984629;27;98181;-70
2024/03/04 02:30:45;;;;;;;;;;;;;;;9.95;53.37;99652.34;4967041;27;98348;-70
2024/03/04 02:33:12;;;;;;;;;;;;;;;9.94;53.90;99645.34;4966256;27;98247;-70
2024/03/04 02:35:38;;;;;;;;;;;;;;;9.94;53.82;99650.72;4982898;27;99417;-70
2024/03/04 02:38:04;;;;;;;;;;;;;;;9.94;53.37;99656.94;4973330;27;97867;-70
2024/03/04 02:40:30;;;;;;;;;;;;;;;9.93;53.54;99647.22;4998569;27;109069;-70
2024/03/04 02:42:56;;;;;;;;;;;;;;;9.92;53.15;99647.53;4968744;27;98149;-70
2024/03/04 02:45:22;;;;;;;;;;;;;;;9.93;53.50;99651.81;4966265;27;98973;-71
2024/03/04 02:47:48;;;;;;;;;;;;;;;9.92;53.56;99653.72;4983113;27;98129;-70
2024/03/04 02:50:14;;;;;;;;;;;;;;;9.92;53.54;99651.03;4978292;27;98656;-70
2024/03/04 02:52:40;;;;;;;;;;;;;;;9.91;53.25;99649.41;4974078;27;115384;-71
2024/03/04 02:55:06;;;;;;;;;;;;;;;9.92;53.35;99658.28;4984233;27;98037;-70
2024/03/04 02:57:32;;;;;;;;;;;;;;;9.90;53.71;99653.19;4975015;27;97971;-70
2024/03/04 02:59:59;;;;;;;;;;;;;;;9.90;53.06;99655.06;4962729;27;127252;-71
2024/03/04 03:02:25;;;;;;;;;;;;;;;9.89;53.36;99662.34;4975180;27;99757;-70
2024/03/04 03:04:51;;;;;;;;;;;;;;;9.90;53.44;99660.44;4980362;27;99119;-71
2024/03/04 03:07:18;;;;;;;;;;;;;;;9.89;53.53;99659.66;4996424;27;98196;-70
2024/03/04 03:09:43;;;;;;;;;;;;;;;9.88;53.36;99662.63;4981440;27;124671;-70
2024/03/04 03:12:12;;;;;;;;;;;;;;;9.87;53.20;99661.03;4974667;27;98143;-70
2024/03/04 03:14:38;;;;;;;;;;;;;;;9.88;53.40;99668.81;4984663;27;98498;-71
2024/03/04 03:17:04;;;;;;;;;;;;;;;9.87;53.33;99671.81;5002569;27;98265;-70
2024/03/04 03:19:30;;;;;;;;;;;;;;;9.86;53.22;99676.34;5001728;27;99314;-70
2024/03/04 03:21:56;;;;;;;;;;;;;;;9.86;53.49;99680.94;4971123;27;130077;-70
2024/03/04 03:24:23;;;;;;;;;;;;;;;9.85;53.43;99682.84;5004237;27;98017;-70
2024/03/04 03:26:51;;;;;;;;;;;;;;;9.85;53.61;99690.91;4963470;27;98643;-70
2024/03/04 03:29:17;;;;;;;;;;;;;;;9.83;53.41;99696.59;5002435;27;98243;-70
2024/03/04 03:31:44;;;;;;;;;;;;;;;9.84;53.42;99697.38;4964217;27;98414;-70
2024/03/04 03:34:10;;;;;;;;;;;;;;;9.83;53.16;99698.47;4988181;27;99129;-70
2024/03/04 03:36:40;;;;;;;;;;;;;;;9.82;53.58;99699.53;4982986;27;98019;-70
2024/03/04 03:39:09;;;;;;;;;;;;;;;9.81;53.45;99704.13;4982392;27;98299;-70
2024/03/04 03:41:44;;;;;;;;;;;;;;;9.80;53.88;99702.53;4987133;27;98524;-70
2024/03/04 03:44:10;;;;;;;;;;;;;;;9.80;53.62;99707.91;4976684;27;116642;-70
2024/03/04 03:46:36;;;;;;;;;;;;;;;9.80;53.69;99712.50;4964960;27;117511;-70
2024/03/04 03:49:02;;;;;;;;;;;;;;;9.79;53.20;99714.38;4968468;27;98284;-70
2024/03/04 03:51:28;;;;;;;;;;;;;;;9.79;53.47;99724.34;4976385;27;98357;-70
2024/03/04 03:53:54;;;;;;;;;;;;;;;9.78;53.65;99723.53;5000009;27;98259;-70
2024/03/04 03:56:20;;;;;;;;;;;;;;;9.76;53.74;99720.31;4966142;27;98242;-70
2024/03/04 03:58:50;;;;;;;;;;;;;;;9.76;53.26;99722.22;4984793;27;98746;-70
2024/03/04 04:01:16;;;;;;;;;;;;;;;9.76;53.75;99716.81;4974467;27;97995;-70
2024/03/04 04:03:42;;;;;;;;;;;;;;;9.75;53.43;99717.91;4983021;27;127037;-70
2024/03/04 04:06:08;;;;;;;;;;;;;;;9.73;53.19;99715.50;4989579;27;116117;-70
2024/03/04 04:08:34;;;;;;;;;;;;;;;9.72;53.34;99724.66;5004879;27;106752;-70
2024/03/04 04:11:00;;;;;;;;;;;;;;;9.72;53.82;99718.47;4983463;27;97986;-70
2024/03/04 04:13:26;;;;;;;;;;;;;;;9.71;54.06;99725.75;4977629;27;126365;-70
2024/03/04 04:15:52;;;;;;;;;;;;;;;9.70;53.70;99732.19;4981667;27;98231;-70
2024/03/04 04:18:18;;;;;;;;;;;;;;;9.69;53.58;99725.19;4984118;27;99647;-70
2024/03/04 04:20:45;;;;;;;;;;;;;;;9.68;53.36;99731.69;4979798;27;98182;-70
2024/03/04 04:23:11;;;;;;;;;;;;;;;9.69;54.05;99724.41;4976587;27;97830;-70
2024/03/04 04:25:37;;;;;;;;;;;;;;;9.67;53.53;99724.69;4979356;27;97979;-70
2024/03/04 04:28:03;;;;;;;;;;;;;;;9.66;53.51;99731.13;5003509;27;117652;-70
2024/03/04 04:30:29;;;;;;;;;;;;;;;9.64;53.33;99724.44;4979693;27;117178;-70
2024/03/04 04:32:55;;;;;;;;;;;;;;;9.65;53.71;99736.81;4980260;27;99607;-70
2024/03/04 04:35:21;;;;;;;;;;;;;;;9.64;53.18;99725.25;4970664;27;115148;-70
2024/03/04 04:37:47;;;;;;;;;;;;;;;9.62;53.32;99730.09;5004465;27;98471;-70
2024/03/04 04:40:20;;;;;;;;;;;;;;;9.63;54.00;99728.19;4980841;27;99483;-70
2024/03/04 04:42:46;;;;;;;;;;;;;;;9.62;53.38;99726.59;4982943;27;98048;-70
2024/03/04 04:45:12;;;;;;;;;;;;;;;9.61;53.52;99730.38;4982901;27;103549;-70
2024/03/04 04:47:38;;;;;;;;;;;;;;;9.61;53.61;99731.19;4986530;27;103964;-70
2024/03/04 04:50:04;;;;;;;;;;;;;;;9.60;53.68;99737.66;4981741;27;104082;-70
2024/03/04 04:52:30;;;;;;;;;;;;;;;9.58;53.25;99737.91;4974917;27;99205;-70
2024/03/04 04:54:56;;;;;;;;;;;;;;;9.58;53.58;99727.16;4966861;27;99453;-70
2024/03/04 04:57:23;;;;;;;;;;;;;;;9.58;53.05;99740.59;4962586;27;111449;-70
2024/03/04 04:59:49;;;;;;;;;;;;;;;9.57;53.57;99740.88;4975413;27;99964;-70
2024/03/04 05:02:14;;;;;;;;;;;;;;;9.57;53.33;99740.88;4980428;27;99365;-70
2024/03/04 05:04:44;;;;;;;;;;;;;;;9.56;53.55;99748.16;4959792;27;110550;-70
2024/03/04 05:07:10;;;;;;;;;;;;;;;9.56;53.54;99747.38;4978900;27;98884;-70
2024/03/04 05:09:36;;;;;;;;;;;;;;;9.55;53.31;99748.44;5012217;27;99366;-70
2024/03/04 05:12:02;;;;;;;;;;;;;;;9.55;53.29;99756.53;4993986;27;127202;-70
2024/03/04 05:14:27;;;;;;;;;;;;;;;9.54;53.22;99762.97;4980007;27;107384;-70
2024/03/04 05:16:55;;;;;;;;;;;;;;;9.53;53.84;99758.66;4960878;27;125149;-70
2024/03/04 05:19:23;;;;;;;;;;;;;;;9.52;53.52;99763.25;4979732;27;98567;-70
2024/03/04 05:21:50;;;;;;;;;;;;;;;9.52;53.57;99763.25;4965994;27;99052;-70
2024/03/04 05:24:16;;;;;;;;;;;;;;;9.54;53.58;99765.66;4959604;27;98184;-70
2024/03/04 05:26:43;;;;;;;;;;;;;;;9.51;52.89;99767.03;4991694;27;98700;-70
2024/03/04 05:29:09;;;;;;;;;;;;;;;9.52;53.24;99768.63;4978727;27;99539;-70
2024/03/04 05:31:38;;;;;;;;;;;;;;;9.52;53.38;99770.53;4961481;27;99893;-70
2024/03/04 05:34:05;;;;;;;;;;;;;;;9.51;53.17;99768.88;4965334;27;98293;-70
2024/03/04 05:36:31;;;;;;;;;;;;;;;9.52;53.06;99770.53;4972290;27;98228;-70
2024/03/04 05:38:57;;;;;;;;;;;;;;;9.51;53.92;99769.72;4998047;27;98127;-70
2024/03/04 05:41:23;;;;;;;;;;;;;;;9.52;53.04;99774.00;4969188;27;100066;-70
2024/03/04 05:43:49;;;;;;;;;;;;;;;9.53;52.87;99777.50;4980235;27;98214;-70
2024/03/04 05:46:15;;;;;;;;;;;;;;;9.53;53.11;99781.00;4976200;27;131074;-70
2024/03/04 05:48:41;;;;;;;;;;;;;;;9.54;53.64;99787.97;4985481;27;128276;-70
2024/03/04 05:51:07;;;;;;;;;;;;;;;9.54;53.09;99785.28;4974384;27;124950;-70
2024/03/04 05:53:33;;;;;;;;;;;;;;;9.56;53.84;99793.91;4963452;27;103203;-70
2024/03/04 05:55:59;;;;;;;;;;;;;;;9.58;53.26;99799.00;4958065;27;98105;-70
2024/03/04 05:58:26;;;;;;;;;;;;;;;9.60;53.47;99799.53;4997732;27;110020;-70
2024/03/04 06:00:52;;;;;;;;;;;;;;;9.62;53.43;99799.25;4983406;27;98476;-70
2024/03/04 06:03:18;;;;;;;;;;;;;;;9.64;53.74;99805.97;4985857;27;98229;-70
2024/03/04 06:05:44;;;;;;;;;;;;;;;9.66;53.62;99809.19;4970254;27;115923;-70
2024/03/04 06:08:10;;;;;;;;;;;;;;;9.69;53.16;99808.63;4979088;27;127824;-71
2024/03/04 06:10:36;;;;;;;;;;;;;;;9.72;53.43;99801.91;4980405;27;116724;-70
2024/03/04 06:13:04;;;;;;;;;;;;;;;9.72;53.30;99801.91;4973833;27;98117;-71
2024/03/04 06:15:32;;;;;;;;;;;;;;;9.77;52.97;99801.88;4980173;27;98181;-70
2024/03/04 06:17:58;;;;;;;;;;;;;;;9.81;52.77;99811.00;5017711;27;117666;-70
2024/03/04 06:20:24;;;;;;;;;;;;;;;9.84;53.32;99811.25;4982892;27;126292;-70
2024/03/04 06:22:51;;;;;;;;;;;;;;;9.89;53.40;99815.00;4971732;27;98407;-70
2024/03/04 06:25:17;;;;;;;;;;;;;;;9.93;52.77;99821.44;4987621;27;98754;-70
2024/03/04 06:27:43;;;;;;;;;;;;;;;9.97;53.39;99833.25;4984920;27;97976;-70
2024/03/04 06:30:12;;;;;;;;;;;;;;;10.01;52.76;99839.69;4983369;27;98441;-70
2024/03/04 06:32:38;;;;;;;;;;;;;;;10.08;52.73;99841.00;4985119;27;98402;-70
2024/03/04 06:35:05;;;;;;;;;;;;;;;10.13;52.94;99845.53;4993501;27;98356;-70
2024/03/04 06:37:32;;;;;;;;;;;;;;;10.19;52.78;99843.63;4981732;27;98336;-70
2024/03/04 06:39:58;;;;;;;;;;;;;;;10.24;52.89;99840.88;5001705;27;98191;-70
2024/03/04 06:42:24;;;;;;;;;;;;;;;10.30;53.18;99842.50;4974966;27;103278;-70
2024/03/04 06:44:50;;;;;;;;;;;;;;;10.34;52.58;99837.38;4985231;27;123203;-70
2024/03/04 06:47:16;;;;;;;;;;;;;;;10.40;52.57;99849.69;4992159;27;98233;-70
2024/03/04 06:49:42;;;;;;;;;;;;;;;10.45;53.14;99853.19;4980662;27;98085;-70
2024/03/04 06:52:08;;;;;;;;;;;;;;;10.50;52.85;99855.03;4979717;27;116872;-71
2024/03/04 06:54:34;;;;;;;;;;;;;;;10.55;52.96;99857.66;5002530;27;98298;-70
2024/03/04 06:57:00;;;;;;;;;;;;;;;10.60;52.91;99863.00;4963100;27;98191;-70
2024/03/04 06:59:26;;;;;;;;;;;;;;;10.65;52.95;99865.69;4981524;27;103935;-70
2024/03/04 07:01:52;;;;;;;;;;;;;;;10.68;52.54;99865.09;4970422;27;98102;-70
2024/03/04 07:04:18;;;;;;;;;;;;;;;10.73;52.95;99865.06;4986143;27;98632;-70
2024/03/04 07:06:45;;;;;;;;;;;;;;;10.81;52.61;99866.38;4978095;27;98326;-70
2024/03/04 07:09:10;;;;;;;;;;;;;;;10.85;52.68;99869.31;4984665;27;97934;-70
2024/03/04 07:11:36;;;;;;;;;;;;;;;10.90;52.74;99875.44;4984277;27;118700;-70
2024/03/04 07:14:02;;;;;;;;;;;;;;;10.96;52.83;99878.88;4986598;27;99749;-70
2024/03/04 07:16:28;;;;;;;;;;;;;;;11.03;52.48;99879.38;4987143;27;117510;-71
2024/03/04 07:18:54;;;;;;;;;;;;;;;11.11;52.45;99876.03;4967574;27;107305;-70
2024/03/04 07:21:20;;;;;;;;;;;;;;;11.19;52.66;99878.13;4968071;27;107438;-70
2024/03/04 07:23:46;;;;;;;;;;;;;;;11.28;52.52;99876.44;4967355;27;98294;-70
2024/03/04 07:26:12;;;;;;;;;;;;;;;11.39;52.56;99881.69;4967681;27;104693;-70
2024/03/04 07:28:40;;;;;;;;;;;;;;;11.49;52.46;99884.28;4964271;27;98173;-70
2024/03/04 07:31:15;;;;;;;;;;;;;;;11.55;52.51;99892.06;4967406;27;98266;-70
2024/03/04 07:33:42;;;;;;;;;;;;;;;11.64;52.46;99884.13;4932982;27;112395;-70
2024/03/04 07:36:19;;;;;;;;;;;;;;;11.72;52.32;99883.47;4948969;27;99590;-70
2024/03/04 07:38:45;;;;;;;;;;;;;;;11.86;52.33;99885.50;4951103;27;98163;-70
2024/03/04 07:41:11;;;;;;;;;;;;;;;11.98;52.25;99883.97;4964928;27;98055;-71
2024/03/04 07:43:37;;;;;;;;;;;;;;;12.03;52.08;99889.34;4949567;27;98288;-70
2024/03/04 07:46:03;;;;;;;;;;;;;;;12.15;52.33;99893.50;4957501;28;98204;-70
2024/03/04 07:48:29;;;;;;;;;;;;;;;12.21;52.13;99889.63;4944663;27;98646;-70
2024/03/04 07:50:56;;;;;;;;;;;;;;;12.23;52.19;99887.44;4964107;27;98609;-70
2024/03/04 07:53:21;;;;;;;;;;;;;;;12.31;52.26;99888.69;4960662;27;99538;-70
2024/03/04 07:55:47;;;;;;;;;;;;;;;12.39;52.35;99891.53;4942710;27;127560;-70
2024/03/04 07:58:13;;;;;;;;;;;;;;;12.43;52.35;99889.84;4947973;27;98380;-70
2024/03/04 08:00:39;;;;;;;;;;;;;;;12.50;52.26;99894.91;4963549;27;103669;-70
2024/03/04 08:03:06;;;;;;;;;;;;;;;12.56;52.14;99899.09;4964340;27;99557;-70
2024/03/04 08:05:32;;;;;;;;;;;;;;;12.64;52.18;99898.44;4978419;27;99483;-70
2024/03/04 08:08:00;;;;;;;;;;;;;;;12.69;52.22;99903.78;4967782;27;98080;-70
2024/03/04 08:10:26;;;;;;;;;;;;;;;12.75;52.29;99897.19;4950443;27;98047;-70
2024/03/04 08:12:52;;;;;;;;;;;;;;;12.77;52.17;99902.28;4961994;27;98872;-70
2024/03/04 08:15:18;;;;;;;;;;;;;;;12.81;52.10;99906.03;4967096;27;98455;-70
2024/03/04 08:17:44;;;;;;;;;;;;;;;12.84;52.09;99910.84;4973612;27;129256;-70
2024/03/04 08:20:11;;;;;;;;;;;;;;;12.88;52.34;99903.72;4964435;27;97917;-70
2024/03/04 08:22:37;;;;;;;;;;;;;;;12.91;52.36;99907.75;4983035;27;98152;-70
2024/03/04 08:25:04;;;;;;;;;;;;;;;12.93;52.55;99908.25;4977968;27;97980;-71
2024/03/04 08:27:30;;;;;;;;;;;;;;;12.97;52.24;99915.50;4965825;27;98168;-70
2024/03/04 08:29:56;;;;;;;;;;;;;;;12.98;52.04;99922.50;5005673;27;98262;-71
2024/03/04 08:32:22;;;;;;;;;;;;;;;13.02;52.15;99920.81;4971261;27;126076;-71
2024/03/04 08:34:49;;;;;;;;;;;;;;;13.01;52.26;99927.34;5000628;27;125961;-70
2024/03/04 08:37:15;;;;;;;;;;;;;;;13.05;52.31;99926.72;5001935;27;98249;-70
2024/03/04 08:39:41;;;;;;;;;;;;;;;13.08;52.19;99924.22;4984936;27;97990;-70
2024/03/04 08:42:07;;;;;;;;;;;;;;;13.13;52.40;99923.38;5002400;27;117215;-70
2024/03/04 08:44:33;;;;;;;;;;;;;;;13.19;52.21;99919.44;4981853;27;108391;-70
2024/03/04 08:46:59;;;;;;;;;;;;;;;13.25;52.28;99926.41;4985690;27;128526;-71
2024/03/04 08:49:25;;;;;;;;;;;;;;;13.33;52.20;99933.84;5000175;27;105145;-71
2024/03/04 08:51:51;;;;;;;;;;;;;;;13.38;52.27;99928.34;4979855;27;98289;-71
2024/03/04 08:54:17;;;;;;;;;;;;;;;13.40;52.24;99931.56;4984143;27;114609;-71
2024/03/04 08:56:43;;;;;;;;;;;;;;;13.46;52.07;99938.47;4966354;27;99022;-71
2024/03/04 08:59:09;;;;;;;;;;;;;;;13.56;51.88;99942.09;4971259;27;97950;-71
2024/03/04 09:01:35;;;;;;;;;;;;;;;13.63;52.15;99934.38;4979201;27;98233;-71
2024/03/04 09:04:01;;;;;;;;;;;;;;;13.69;51.97;99936.69;5002797;27;98358;-71
2024/03/04 09:06:27;;;;;;;;;;;;;;;13.72;52.30;99943.44;5000571;27;102198;-71
2024/03/04 09:08:53;;;;;;;;;;;;;;;13.79;52.16;99945.72;4978144;27;98580;-71
2024/03/04 09:11:19;;;;;;;;;;;;;;;13.80;52.41;99950.06;4981434;27;123642;-71
2024/03/04 09:13:45;;;;;;;;;;;;;;;13.83;51.92;99946.72;4980581;27;103777;-71
2024/03/04 09:16:13;;;;;;;;;;;;;;;13.82;52.24;99947.81;4988392;27;99444;-71
2024/03/04 09:18:42;;;;;;;;;;;;;;;13.82;52.12;99948.63;4984756;27;98185;-71
2024/03/04 09:21:08;;;;;;;;;;;;;;;13.85;52.39;99952.66;4980959;27;101657;-71
2024/03/04 09:23:34;;;;;;;;;;;;;;;13.86;52.38;99952.34;4967644;27;98717;-71
2024/03/04 09:26:00;;;;;;;;;;;;;;;13.85;52.41;99961.56;4985821;27;98667;-70
2024/03/04 09:28:26;;;;;;;;;;;;;;;13.85;52.25;99969.69;4988254;27;109158;-71
2024/03/04 09:30:52;;;;;;;;;;;;;;;13.85;52.54;99961.56;4969186;27;98347;-71
2024/03/04 09:33:18;;;;;;;;;;;;;;;13.90;52.14;99968.78;4964242;27;130729;-71
2024/03/04 09:35:46;;;;;;;;;;;;;;;13.93;52.31;99960.06;4990262;27;98249;-71
2024/03/04 09:38:12;;;;;;;;;;;;;;;13.99;52.30;99961.59;4984248;27;98124;-71
2024/03/04 09:40:39;;;;;;;;;;;;;;;14.01;52.34;99959.38;4983176;27;99922;-71
2024/03/04 09:43:06;;;;;;;;;;;;;;;14.05;52.12;99962.28;4985338;27;98088;-71
2024/03/04 09:45:32;;;;;;;;;;;;;;;14.09;52.34;99965.97;4989427;27;98528;-71
2024/03/04 09:47:59;;;;;;;;;;;;;;;14.11;52.38;99964.59;4989334;27;115629;-71
2024/03/04 09:50:25;;;;;;;;;;;;;;;14.13;52.35;99965.06;4968368;27;99507;-71
2024/03/04 09:52:53;;;;;;;;;;;;;;;14.15;52.10;99965.59;4986021;27;101456;-71
2024/03/04 09:55:19;;;;;;;;;;;;;;;14.18;52.40;99966.88;4989678;27;118640;-71
2024/03/04 09:57:45;;;;;;;;;;;;;;;14.21;52.16;99979.81;4992663;27;98190;-71
2024/03/04 10:00:14;;;;;;;;;;;;;;;14.24;52.37;99979.22;4987901;27;98254;-71
2024/03/04 10:02:43;;;;;;;;;;;;;;;14.29;52.15;99981.81;4989674;27;97983;-71
2024/03/04 10:05:11;;;;;;;;;;;;;;;14.32;52.38;99981.22;4975347;27;99479;-71
2024/03/04 10:07:37;;;;;;;;;;;;;;;14.34;52.10;99983.63;4988489;27;99258;-71
2024/03/04 10:10:04;;;;;;;;;;;;;;;14.36;52.26;99989.56;4993678;27;99012;-71
2024/03/04 10:12:30;;;;;;;;;;;;;;;14.37;52.43;99993.84;4973413;27;106852;-71
2024/03/04 10:15:11;;;;;;;;;;;;;;;14.38;52.38;99993.56;4992810;27;98225;-71
2024/03/04 10:17:37;;;;;;;;;;;;;;;14.37;52.41;99989.22;5013214;27;99804;-71
2024/03/04 10:20:08;;;;;;;;;;;;;;;14.40;52.31;99990.53;5001938;27;98476;-71
2024/03/04 10:22:34;;;;;;;;;;;;;;;14.43;52.12;99998.88;4964802;27;111914;-71
2024/03/04 10:25:10;;;;;;;;;;;;;;;14.49;52.23;100005.00;5000370;27;98186;-71
2024/03/04 10:27:40;;;;;;;;;;;;;;;14.54;52.25;100007.63;4990668;27;98008;-71
2024/03/04 10:30:17;;;;;;;;;;;;;;;14.59;52.11;100012.13;4982168;27;99488;-71
2024/03/04 10:32:50;;;;;;;;;;;;;;;14.59;52.41;100004.81;4981877;27;98265;-71
2024/03/04 10:35:17;;;;;;;;;;;;;;;14.58;52.34;100016.75;4984321;27;98335;-71
2024/03/04 10:37:43;;;;;;;;;;;;;;;14.58;52.44;100010.50;4987455;27;98958;-71
2024/03/04 10:40:10;;;;;;;;;;;;;;;14.61;52.41;100009.91;4970381;27;106068;-71
2024/03/04 10:42:40;;;;;;;;;;;;;;;14.64;52.43;100012.03;4985516;27;98505;-71
2024/03/04 10:45:07;;;;;;;;;;;;;;;14.64;52.48;100017.44;4986307;27;98151;-71
2024/03/04 10:47:33;;;;;;;;;;;;;;;14.67;52.50;100017.63;4989437;27;98384;-71
2024/03/04 10:49:59;;;;;;;;;;;;;;;14.69;52.45;100017.31;4985923;27;98161;-71
2024/03/04 10:52:25;;;;;;;;;;;;;;;14.69;52.33;100012.69;4972566;27;98116;-71
2024/03/04 10:54:51;;;;;;;;;;;;;;;14.72;52.15;100019.44;4984929;27;98476;-71
2024/03/04 10:57:27;;;;;;;;;;;;;;;14.72;52.38;100027.56;4984276;27;98166;-71
2024/03/04 10:59:57;;;;;;;;;;;;;;;14.71;52.27;100020.53;4987252;27;100743;-71
2024/03/04 11:02:41;;;;;;;;;;;;;;;14.70;52.38;100027.09;4987137;27;99915;-71
2024/03/04 11:05:11;;;;;;;;;;;;;;;14.70;52.53;100024.38;4967385;27;98916;-71
2024/03/04 11:07:46;;;;;;;;;;;;;;;14.68;52.45;100021.16;4987451;27;97933;-71
2024/03/04 11:10:15;;;;;;;;;;;;;;;14.67;52.37;100019.56;4967959;27;99938;-71
2024/03/04 11:12:42;;;;;;;;;;;;;;;14.66;52.65;100023.38;4980595;27;99064;-71
2024/03/04 11:15:09;;;;;;;;;;;;;;;14.64;52.48;100020.16;4986513;27;116493;-71
2024/03/04 11:17:40;;;;;;;;;;;;;;;14.60;52.68;100025.38;4971526;27;98226;-71
2024/03/04 11:20:07;;;;;;;;;;;;;;;14.59;52.78;100023.78;4948562;27;97902;-71
2024/03/04 11:22:33;;;;;;;;;;;;;;;14.62;52.72;100023.19;4978058;27;98317;-71
2024/03/04 11:24:59;;;;;;;;;;;;;;;14.65;52.42;100029.88;4969376;27;98141;-71
2024/03/04 11:27:25;;;;;;;;;;;;;;;14.70;52.65;100018.94;4958787;27;113227;-71
2024/03/04 11:29:51;;;;;;;;;;;;;;;14.71;52.35;100026.78;4968081;27;111622;-71
2024/03/04 11:32:26;;;;;;;;;;;;;;;14.72;52.65;100028.38;4965804;27;126898;-71
2024/03/04 11:35:13;;;;;;;;;;;;;;;14.73;52.56;100029.16;4982731;27;98089;-71
2024/03/04 11:37:49;;;;;;;;;;;;;;;14.75;52.55;100031.59;4962509;27;97916;-71
2024/03/04 11:40:18;;;;;;;;;;;;;;;14.80;52.36;100028.75;4972254;27;98128;-71
2024/03/04 11:42:46;;;;;;;;;;;;;;;14.84;52.42;100035.19;4964933;27;98447;-71
2024/03/04 11:45:21;;;;;;;;;;;;;;;14.86;52.42;100032.97;4950408;28;99547;-71
2024/03/04 11:47:49;;;;;;;;;;;;;;;14.88;52.38;100033.44;4968760;27;98255;-71
2024/03/04 11:50:40;;;;;;;;;;;;;;;14.90;52.05;100034.75;4979943;27;98037;-71
2024/03/04 11:53:26;;;;;;;;;;;;;;;14.92;52.57;100029.03;4994156;27;99824;-71
2024/03/04 11:55:53;;;;;;;;;;;;;;;14.95;52.15;100033.84;4957983;27;98757;-71
2024/03/04 11:58:19;;;;;;;;;;;;;;;14.97;52.45;100045.19;4938567;28;98401;-71
2024/03/04 12:00:45;;;;;;;;;;;;;;;14.97;52.33;100043.28;4976868;27;98162;-71
2024/03/04 12:03:14;;;;;;;;;;;;;;;14.99;52.30;100037.53;4962939;28;130992;-71
2024/03/04 12:05:40;;;;;;;;;;;;;;;14.97;52.19;100040.56;4960918;27;98411;-71
2024/03/04 12:08:07;;;;;;;;;;;;;;;14.98;52.64;100044.09;4963187;27;105930;-71
2024/03/04 12:10:34;;;;;;;;;;;;;;;15.01;52.39;100040.75;4955217;27;98146;-72
2024/03/04 12:13:00;;;;;;;;;;;;;;;15.00;52.60;100046.47;4945684;27;98580;-71
2024/03/04 12:15:27;;;;;;;;;;;;;;;15.01;52.56;100046.16;4981246;27;108907;-71
2024/03/04 12:17:53;;;;;;;;;;;;;;;15.03;52.65;100048.59;4976108;27;100637;-71
2024/03/04 12:20:19;;;;;;;;;;;;;;;15.05;52.57;100043.66;4948177;28;99982;-72
2024/03/04 12:22:45;;;;;;;;;;;;;;;15.04;52.39;100048.28;4943262;27;98207;-71
2024/03/04 12:25:11;;;;;;;;;;;;;;;15.03;52.79;100046.69;4962083;27;126727;-71
2024/03/04 12:27:41;;;;;;;;;;;;;;;15.04;52.70;100055.63;4968319;27;112307;-71
2024/03/04 12:30:27;;;;;;;;;;;;;;;15.08;52.74;100049.25;4961567;27;98529;-71
2024/03/04 12:32:53;;;;;;;;;;;;;;;15.20;52.26;100049.50;4972129;27;99479;-71
2024/03/04 12:35:32;;;;;;;;;;;;;;;15.26;52.48;100052.13;4968184;27;98223;-71
2024/03/04 12:37:59;;;;;;;;;;;;;;;15.33;52.19;100049.78;4951214;27;98036;-71
2024/03/04 12:40:25;;;;;;;;;;;;;;;15.37;52.28;100050.78;4979823;27;99127;-71
2024/03/04 12:42:59;;;;;;;;;;;;;;;15.39;52.47;100054.78;4949118;27;98440;-71
2024/03/04 12:45:26;;;;;;;;;;;;;;;15.41;52.45;100054.47;4957920;28;98330;-71